Jamesport, Missouri
Current Conditions -  °F | °C
As of 7:53 PM on Saturday 22 Nov 2014 (Local Time) from KLWD Reporting Station
Scattered Clouds Scattered Clouds  
Wind Chill: 52°   Ceiling: Unl
Heat Index: 52°   Visibility: 10mi
Dew Point: 50°   Wind: 13mph
Humidity: 93%   Direction: 180°S
Pressure: 29.71"   Gusts: NA
Location:  39.97°N, 93.8°W
Report Text: KLWD 230153Z AUTO 18011KT 10SM SCT045 11/10 A2971 RMK AO2 SLP064 T01110100 $
Loading
Personal Weather Stations






























Interactive Weather Map New forecast layout! Learn more

10-Day Weather Forecast

Advertisements
Track Severe Weather on mobile